sensor_id;sensor_type;location;lat;lon;timestamp;P1;durP1;ratioP1;P2;durP2;ratioP2
59569;SDS011;45393;44.646;10.900;2022-08-19T00:00:35;38.43;;;34.47;;
59569;SDS011;45393;44.646;10.900;2022-08-19T00:03:01;41.30;;;37.10;;
59569;SDS011;45393;44.646;10.900;2022-08-19T00:05:28;40.70;;;36.73;;
59569;SDS011;45393;44.646;10.900;2022-08-19T00:07:54;41.03;;;37.03;;
59569;SDS011;45393;44.646;10.900;2022-08-19T00:10:20;37.73;;;34.03;;
59569;SDS011;45393;44.646;10.900;2022-08-19T00:12:46;39.07;;;35.37;;
59569;SDS011;45393;44.646;10.900;2022-08-19T00:15:13;41.73;;;37.70;;
59569;SDS011;45393;44.646;10.900;2022-08-19T00:17:40;38.33;;;34.57;;
59569;SDS011;45393;44.646;10.900;2022-08-19T00:20:08;42.20;;;38.20;;
59569;SDS011;45393;44.646;10.900;2022-08-19T00:22:36;39.77;;;36.00;;
59569;SDS011;45393;44.646;10.900;2022-08-19T00:25:02;41.33;;;36.93;;
59569;SDS011;45393;44.646;10.900;2022-08-19T00:27:28;28.13;;;18.93;;
59569;SDS011;45393;44.646;10.900;2022-08-19T00:29:54;26.07;;;16.00;;
59569;SDS011;45393;44.646;10.900;2022-08-19T00:32:20;28.33;;;17.57;;
59569;SDS011;45393;44.646;10.900;2022-08-19T00:34:47;23.50;;;17.57;;
59569;SDS011;45393;44.646;10.900;2022-08-19T00:37:13;26.00;;;17.57;;
59569;SDS011;45393;44.646;10.900;2022-08-19T00:39:39;19.00;;;15.77;;
59569;SDS011;45393;44.646;10.900;2022-08-19T00:42:05;17.07;;;13.93;;
59569;SDS011;45393;44.646;10.900;2022-08-19T00:44:31;16.70;;;14.60;;
59569;SDS011;45393;44.646;10.900;2022-08-19T00:46:58;13.77;;;11.13;;
59569;SDS011;45393;44.646;10.900;2022-08-19T00:49:37;15.33;;;10.40;;
59569;SDS011;45393;44.646;10.900;2022-08-19T00:52:09;17.40;;;14.40;;
59569;SDS011;45393;44.646;10.900;2022-08-19T00:54:37;16.47;;;14.07;;
59569;SDS011;45393;44.646;10.900;2022-08-19T00:57:05;20.07;;;15.53;;
59569;SDS011;45393;44.646;10.900;2022-08-19T00:59:32;18.43;;;15.67;;
59569;SDS011;45393;44.646;10.900;2022-08-19T01:02:00;17.07;;;14.47;;
59569;SDS011;45393;44.646;10.900;2022-08-19T01:04:26;22.03;;;18.00;;
59569;SDS011;45393;44.646;10.900;2022-08-19T01:06:52;24.13;;;19.63;;
59569;SDS011;45393;44.646;10.900;2022-08-19T01:09:19;21.43;;;15.93;;
59569;SDS011;45393;44.646;10.900;2022-08-19T01:11:45;19.37;;;16.73;;
59569;SDS011;45393;44.646;10.900;2022-08-19T01:14:11;17.33;;;11.73;;
59569;SDS011;45393;44.646;10.900;2022-08-19T01:16:38;16.93;;;12.70;;
59569;SDS011;45393;44.646;10.900;2022-08-19T01:19:12;13.33;;;9.40;;
59569;SDS011;45393;44.646;10.900;2022-08-19T01:21:45;15.40;;;10.70;;
59569;SDS011;45393;44.646;10.900;2022-08-19T01:24:13;12.00;;;8.40;;
59569;SDS011;45393;44.646;10.900;2022-08-19T01:26:41;12.60;;;8.70;;
59569;SDS011;45393;44.646;10.900;2022-08-19T01:29:08;11.83;;;7.63;;
59569;SDS011;45393;44.646;10.900;2022-08-19T01:31:34;9.67;;;7.07;;
59569;SDS011;45393;44.646;10.900;2022-08-19T01:34:01;15.57;;;7.27;;
59569;SDS011;45393;44.646;10.900;2022-08-19T01:36:29;13.17;;;7.07;;
59569;SDS011;45393;44.646;10.900;2022-08-19T01:38:56;8.80;;;5.90;;
59569;SDS011;45393;44.646;10.900;2022-08-19T01:41:23;9.60;;;5.87;;
59569;SDS011;45393;44.646;10.900;2022-08-19T01:43:49;10.03;;;6.03;;
59569;SDS011;45393;44.646;10.900;2022-08-19T01:46:16;10.73;;;6.53;;
59569;SDS011;45393;44.646;10.900;2022-08-19T01:48:42;14.50;;;7.33;;
59569;SDS011;45393;44.646;10.900;2022-08-19T01:51:10;11.10;;;6.80;;
59569;SDS011;45393;44.646;10.900;2022-08-19T01:53:36;10.07;;;6.10;;
59569;SDS011;45393;44.646;10.900;2022-08-19T01:56:03;11.63;;;7.10;;
59569;SDS011;45393;44.646;10.900;2022-08-19T01:58:34;11.47;;;7.13;;
59569;SDS011;45393;44.646;10.900;2022-08-19T02:01:02;12.83;;;6.50;;
59569;SDS011;45393;44.646;10.900;2022-08-19T02:03:29;11.10;;;7.27;;
59569;SDS011;45393;44.646;10.900;2022-08-19T02:05:59;10.53;;;6.87;;
59569;SDS011;45393;44.646;10.900;2022-08-19T02:08:28;14.23;;;7.53;;
59569;SDS011;45393;44.646;10.900;2022-08-19T02:10:55;11.83;;;7.53;;
59569;SDS011;45393;44.646;10.900;2022-08-19T02:13:21;13.53;;;7.30;;
59569;SDS011;45393;44.646;10.900;2022-08-19T02:15:48;12.20;;;7.40;;
59569;SDS011;45393;44.646;10.900;2022-08-19T02:18:14;13.90;;;7.60;;
59569;SDS011;45393;44.646;10.900;2022-08-19T02:20:40;15.23;;;7.80;;
59569;SDS011;45393;44.646;10.900;2022-08-19T02:23:07;13.17;;;8.10;;
59569;SDS011;45393;44.646;10.900;2022-08-19T02:25:33;11.60;;;7.93;;
59569;SDS011;45393;44.646;10.900;2022-08-19T02:27:59;10.13;;;6.80;;
59569;SDS011;45393;44.646;10.900;2022-08-19T02:30:25;12.93;;;7.73;;
59569;SDS011;45393;44.646;10.900;2022-08-19T02:32:52;11.27;;;7.03;;
59569;SDS011;45393;44.646;10.900;2022-08-19T02:35:18;10.67;;;6.83;;
59569;SDS011;45393;44.646;10.900;2022-08-19T02:37:44;10.17;;;4.80;;
59569;SDS011;45393;44.646;10.900;2022-08-19T02:40:29;6.30;;;3.73;;
59569;SDS011;45393;44.646;10.900;2022-08-19T02:42:59;7.43;;;3.73;;
59569;SDS011;45393;44.646;10.900;2022-08-19T02:45:25;7.57;;;3.10;;
59569;SDS011;45393;44.646;10.900;2022-08-19T02:47:52;6.50;;;3.17;;
59569;SDS011;45393;44.646;10.900;2022-08-19T02:50:18;6.33;;;2.80;;
59569;SDS011;45393;44.646;10.900;2022-08-19T02:52:44;5.50;;;2.50;;
59569;SDS011;45393;44.646;10.900;2022-08-19T02:55:10;6.77;;;2.33;;
59569;SDS011;45393;44.646;10.900;2022-08-19T02:57:36;6.20;;;2.37;;
59569;SDS011;45393;44.646;10.900;2022-08-19T03:00:06;8.07;;;2.67;;
59569;SDS011;45393;44.646;10.900;2022-08-19T03:02:33;10.60;;;2.80;;
59569;SDS011;45393;44.646;10.900;2022-08-19T03:04:59;3.63;;;1.90;;
59569;SDS011;45393;44.646;10.900;2022-08-19T03:07:26;6.67;;;2.23;;
59569;SDS011;45393;44.646;10.900;2022-08-19T03:09:52;9.27;;;2.50;;
59569;SDS011;45393;44.646;10.900;2022-08-19T03:12:18;5.60;;;2.00;;
59569;SDS011;45393;44.646;10.900;2022-08-19T03:14:44;6.83;;;2.40;;
59569;SDS011;45393;44.646;10.900;2022-08-19T03:17:11;5.73;;;2.37;;
59569;SDS011;45393;44.646;10.900;2022-08-19T03:19:37;3.63;;;2.20;;
59569;SDS011;45393;44.646;10.900;2022-08-19T03:22:03;5.07;;;2.33;;
59569;SDS011;45393;44.646;10.900;2022-08-19T03:24:30;6.50;;;2.30;;
59569;SDS011;45393;44.646;10.900;2022-08-19T03:26:57;5.43;;;2.50;;
59569;SDS011;45393;44.646;10.900;2022-08-19T03:29:24;6.57;;;2.43;;
59569;SDS011;45393;44.646;10.900;2022-08-19T03:31:51;6.10;;;2.20;;
59569;SDS011;45393;44.646;10.900;2022-08-19T03:34:19;5.70;;;2.33;;
59569;SDS011;45393;44.646;10.900;2022-08-19T03:36:45;6.40;;;2.27;;
59569;SDS011;45393;44.646;10.900;2022-08-19T03:39:11;6.47;;;2.83;;
59569;SDS011;45393;44.646;10.900;2022-08-19T03:41:38;5.57;;;2.47;;
59569;SDS011;45393;44.646;10.900;2022-08-19T03:44:05;6.50;;;2.53;;
59569;SDS011;45393;44.646;10.900;2022-08-19T03:46:33;6.40;;;2.67;;
59569;SDS011;45393;44.646;10.900;2022-08-19T03:49:00;5.77;;;2.80;;
59569;SDS011;45393;44.646;10.900;2022-08-19T03:51:30;6.07;;;2.70;;
59569;SDS011;45393;44.646;10.900;2022-08-19T03:53:56;6.97;;;3.10;;
59569;SDS011;45393;44.646;10.900;2022-08-19T03:56:23;6.70;;;3.37;;
59569;SDS011;45393;44.646;10.900;2022-08-19T03:58:55;8.77;;;3.40;;
59569;SDS011;45393;44.646;10.900;2022-08-19T04:01:22;9.77;;;4.03;;
59569;SDS011;45393;44.646;10.900;2022-08-19T04:03:49;5.53;;;2.67;;
59569;SDS011;45393;44.646;10.900;2022-08-19T04:06:19;5.83;;;3.40;;
59569;SDS011;45393;44.646;10.900;2022-08-19T04:08:46;7.53;;;3.20;;
59569;SDS011;45393;44.646;10.900;2022-08-19T04:11:14;8.60;;;3.60;;
59569;SDS011;45393;44.646;10.900;2022-08-19T04:13:41;4.87;;;3.10;;
59569;SDS011;45393;44.646;10.900;2022-08-19T04:16:09;7.97;;;3.67;;
59569;SDS011;45393;44.646;10.900;2022-08-19T04:18:36;9.67;;;4.20;;
59569;SDS011;45393;44.646;10.900;2022-08-19T04:21:02;7.13;;;3.80;;
59569;SDS011;45393;44.646;10.900;2022-08-19T04:23:29;8.87;;;3.97;;
59569;SDS011;45393;44.646;10.900;2022-08-19T04:25:55;8.20;;;3.83;;
59569;SDS011;45393;44.646;10.900;2022-08-19T04:28:21;8.47;;;4.47;;
59569;SDS011;45393;44.646;10.900;2022-08-19T04:30:49;9.17;;;3.60;;
59569;SDS011;45393;44.646;10.900;2022-08-19T04:33:16;7.80;;;3.70;;
59569;SDS011;45393;44.646;10.900;2022-08-19T04:35:45;7.93;;;3.70;;
59569;SDS011;45393;44.646;10.900;2022-08-19T04:38:12;6.57;;;3.37;;
59569;SDS011;45393;44.646;10.900;2022-08-19T04:40:45;9.90;;;4.10;;
59569;SDS011;45393;44.646;10.900;2022-08-19T04:43:30;7.70;;;4.00;;
59569;SDS011;45393;44.646;10.900;2022-08-19T04:45:56;12.47;;;4.77;;
59569;SDS011;45393;44.646;10.900;2022-08-19T04:48:23;9.80;;;4.60;;
59569;SDS011;45393;44.646;10.900;2022-08-19T04:50:53;11.80;;;5.37;;
59569;SDS011;45393;44.646;10.900;2022-08-19T04:53:23;13.30;;;5.63;;
59569;SDS011;45393;44.646;10.900;2022-08-19T04:55:50;9.93;;;5.27;;
59569;SDS011;45393;44.646;10.900;2022-08-19T04:58:16;13.40;;;6.43;;
59569;SDS011;45393;44.646;10.900;2022-08-19T05:00:43;16.50;;;7.70;;
59569;SDS011;45393;44.646;10.900;2022-08-19T05:03:09;19.07;;;8.60;;
59569;SDS011;45393;44.646;10.900;2022-08-19T05:05:42;17.10;;;9.50;;
59569;SDS011;45393;44.646;10.900;2022-08-19T05:08:09;16.93;;;9.17;;
59569;SDS011;45393;44.646;10.900;2022-08-19T05:10:37;17.17;;;8.27;;
59569;SDS011;45393;44.646;10.900;2022-08-19T05:13:03;12.40;;;5.97;;
59569;SDS011;45393;44.646;10.900;2022-08-19T05:15:29;10.20;;;4.37;;
59569;SDS011;45393;44.646;10.900;2022-08-19T05:17:55;9.87;;;4.50;;
59569;SDS011;45393;44.646;10.900;2022-08-19T05:20:40;9.97;;;4.27;;
59569;SDS011;45393;44.646;10.900;2022-08-19T05:23:25;14.53;;;4.53;;
59569;SDS011;45393;44.646;10.900;2022-08-19T05:25:51;8.80;;;4.40;;
59569;SDS011;45393;44.646;10.900;2022-08-19T05:28:18;11.37;;;4.30;;
59569;SDS011;45393;44.646;10.900;2022-08-19T05:30:44;8.37;;;3.60;;
59569;SDS011;45393;44.646;10.900;2022-08-19T05:33:11;6.40;;;3.27;;
59569;SDS011;45393;44.646;10.900;2022-08-19T05:35:38;4.97;;;2.40;;
59569;SDS011;45393;44.646;10.900;2022-08-19T05:38:06;4.40;;;2.63;;
59569;SDS011;45393;44.646;10.900;2022-08-19T05:40:37;6.27;;;2.87;;
59569;SDS011;45393;44.646;10.900;2022-08-19T05:43:04;5.53;;;2.70;;
59569;SDS011;45393;44.646;10.900;2022-08-19T05:45:30;7.30;;;2.50;;
59569;SDS011;45393;44.646;10.900;2022-08-19T05:47:56;5.97;;;2.47;;
59569;SDS011;45393;44.646;10.900;2022-08-19T05:50:23;4.80;;;2.47;;
59569;SDS011;45393;44.646;10.900;2022-08-19T05:52:51;5.57;;;2.27;;
59569;SDS011;45393;44.646;10.900;2022-08-19T05:55:17;6.63;;;3.53;;
59569;SDS011;45393;44.646;10.900;2022-08-19T05:57:45;5.67;;;3.00;;
59569;SDS011;45393;44.646;10.900;2022-08-19T06:00:11;6.60;;;3.30;;
59569;SDS011;45393;44.646;10.900;2022-08-19T06:02:38;4.87;;;2.30;;
59569;SDS011;45393;44.646;10.900;2022-08-19T06:05:05;4.07;;;2.33;;
59569;SDS011;45393;44.646;10.900;2022-08-19T06:07:37;5.47;;;2.40;;
59569;SDS011;45393;44.646;10.900;2022-08-19T06:10:04;10.00;;;3.07;;
59569;SDS011;45393;44.646;10.900;2022-08-19T06:12:31;7.37;;;2.97;;
59569;SDS011;45393;44.646;10.900;2022-08-19T06:15:00;7.93;;;2.70;;
59569;SDS011;45393;44.646;10.900;2022-08-19T06:17:27;6.03;;;2.03;;
59569;SDS011;45393;44.646;10.900;2022-08-19T06:19:54;3.77;;;1.77;;
59569;SDS011;45393;44.646;10.900;2022-08-19T06:22:21;3.93;;;1.43;;
59569;SDS011;45393;44.646;10.900;2022-08-19T06:24:47;4.47;;;1.27;;
59569;SDS011;45393;44.646;10.900;2022-08-19T06:27:17;3.47;;;1.20;;
59569;SDS011;45393;44.646;10.900;2022-08-19T06:29:43;2.83;;;1.23;;
59569;SDS011;45393;44.646;10.900;2022-08-19T06:32:11;4.73;;;1.47;;
59569;SDS011;45393;44.646;10.900;2022-08-19T06:34:38;3.13;;;1.40;;
59569;SDS011;45393;44.646;10.900;2022-08-19T06:37:05;3.67;;;1.10;;
59569;SDS011;45393;44.646;10.900;2022-08-19T06:39:34;2.27;;;1.03;;
59569;SDS011;45393;44.646;10.900;2022-08-19T06:42:02;3.53;;;1.20;;
59569;SDS011;45393;44.646;10.900;2022-08-19T06:44:32;2.23;;;1.00;;
59569;SDS011;45393;44.646;10.900;2022-08-19T06:47:00;1.87;;;0.90;;
59569;SDS011;45393;44.646;10.900;2022-08-19T06:49:27;2.97;;;1.10;;
59569;SDS011;45393;44.646;10.900;2022-08-19T06:51:55;1.80;;;0.97;;
59569;SDS011;45393;44.646;10.900;2022-08-19T06:54:22;1.93;;;1.00;;
59569;SDS011;45393;44.646;10.900;2022-08-19T06:56:48;1.43;;;0.90;;
59569;SDS011;45393;44.646;10.900;2022-08-19T06:59:15;3.37;;;0.97;;
59569;SDS011;45393;44.646;10.900;2022-08-19T07:01:44;1.20;;;0.90;;
59569;SDS011;45393;44.646;10.900;2022-08-19T07:04:14;1.40;;;1.00;;
59569;SDS011;45393;44.646;10.900;2022-08-19T07:06:40;1.80;;;0.97;;
59569;SDS011;45393;44.646;10.900;2022-08-19T07:09:07;1.43;;;1.07;;
59569;SDS011;45393;44.646;10.900;2022-08-19T07:11:34;3.37;;;0.90;;
59569;SDS011;45393;44.646;10.900;2022-08-19T07:14:00;1.43;;;0.90;;
59569;SDS011;45393;44.646;10.900;2022-08-19T07:16:27;3.63;;;0.90;;
59569;SDS011;45393;44.646;10.900;2022-08-19T07:18:53;1.43;;;0.90;;
59569;SDS011;45393;44.646;10.900;2022-08-19T07:21:22;1.73;;;1.07;;
59569;SDS011;45393;44.646;10.900;2022-08-19T07:23:49;2.50;;;1.00;;
59569;SDS011;45393;44.646;10.900;2022-08-19T07:26:24;1.60;;;1.03;;
59569;SDS011;45393;44.646;10.900;2022-08-19T07:28:51;2.17;;;1.10;;
59569;SDS011;45393;44.646;10.900;2022-08-19T07:31:19;2.60;;;1.10;;
59569;SDS011;45393;44.646;10.900;2022-08-19T07:33:46;2.10;;;1.20;;
59569;SDS011;45393;44.646;10.900;2022-08-19T07:36:14;2.03;;;1.23;;
59569;SDS011;45393;44.646;10.900;2022-08-19T07:38:41;2.93;;;1.20;;
59569;SDS011;45393;44.646;10.900;2022-08-19T07:41:11;1.97;;;1.30;;
59569;SDS011;45393;44.646;10.900;2022-08-19T07:43:38;3.33;;;1.40;;
59569;SDS011;45393;44.646;10.900;2022-08-19T07:46:04;1.77;;;1.23;;
59569;SDS011;45393;44.646;10.900;2022-08-19T07:48:31;1.53;;;1.20;;
59569;SDS011;45393;44.646;10.900;2022-08-19T07:50:58;1.97;;;1.10;;
59569;SDS011;45393;44.646;10.900;2022-08-19T07:53:27;1.90;;;1.20;;
59569;SDS011;45393;44.646;10.900;2022-08-19T07:55:53;2.60;;;1.20;;
59569;SDS011;45393;44.646;10.900;2022-08-19T07:58:21;2.70;;;1.20;;
59569;SDS011;45393;44.646;10.900;2022-08-19T08:00:48;1.70;;;1.60;;
59569;SDS011;45393;44.646;10.900;2022-08-19T08:03:15;2.20;;;1.57;;
59569;SDS011;45393;44.646;10.900;2022-08-19T08:05:42;1.40;;;1.23;;
59569;SDS011;45393;44.646;10.900;2022-08-19T08:08:26;1.40;;;1.30;;
59569;SDS011;45393;44.646;10.900;2022-08-19T08:11:03;1.27;;;1.17;;
59569;SDS011;45393;44.646;10.900;2022-08-19T08:13:29;2.07;;;1.40;;
59569;SDS011;45393;44.646;10.900;2022-08-19T08:15:56;2.10;;;1.57;;
59569;SDS011;45393;44.646;10.900;2022-08-19T08:18:23;3.33;;;1.80;;
59569;SDS011;45393;44.646;10.900;2022-08-19T08:20:49;2.87;;;1.80;;
59569;SDS011;45393;44.646;10.900;2022-08-19T08:23:15;4.03;;;1.50;;
59569;SDS011;45393;44.646;10.900;2022-08-19T08:25:47;2.93;;;1.47;;
59569;SDS011;45393;44.646;10.900;2022-08-19T08:28:14;2.47;;;1.60;;
59569;SDS011;45393;44.646;10.900;2022-08-19T08:30:40;2.10;;;1.40;;
59569;SDS011;45393;44.646;10.900;2022-08-19T08:33:08;3.00;;;1.30;;
59569;SDS011;45393;44.646;10.900;2022-08-19T08:35:34;1.90;;;1.20;;
59569;SDS011;45393;44.646;10.900;2022-08-19T08:38:01;2.50;;;1.43;;
59569;SDS011;45393;44.646;10.900;2022-08-19T08:45:35;2.33;;;1.10;;
59569;SDS011;45393;44.646;10.900;2022-08-19T08:48:02;2.40;;;1.30;;
59569;SDS011;45393;44.646;10.900;2022-08-19T08:50:38;2.20;;;1.27;;
59569;SDS011;45393;44.646;10.900;2022-08-19T08:53:05;1.80;;;1.33;;
59569;SDS011;45393;44.646;10.900;2022-08-19T08:55:32;2.33;;;1.10;;
59569;SDS011;45393;44.646;10.900;2022-08-19T08:58:03;2.77;;;1.50;;
59569;SDS011;45393;44.646;10.900;2022-08-19T09:00:32;2.40;;;1.10;;
59569;SDS011;45393;44.646;10.900;2022-08-19T09:02:59;3.33;;;1.20;;
59569;SDS011;45393;44.646;10.900;2022-08-19T09:08:08;3.87;;;1.20;;
59569;SDS011;45393;44.646;10.900;2022-08-19T09:10:55;3.20;;;1.47;;
59569;SDS011;45393;44.646;10.900;2022-08-19T09:13:26;2.37;;;1.20;;
59569;SDS011;45393;44.646;10.900;2022-08-19T09:16:03;3.27;;;1.40;;
59569;SDS011;45393;44.646;10.900;2022-08-19T09:21:26;3.83;;;1.23;;
59569;SDS011;45393;44.646;10.900;2022-08-19T09:23:52;4.87;;;1.20;;
59569;SDS011;45393;44.646;10.900;2022-08-19T09:26:20;2.80;;;0.93;;
59569;SDS011;45393;44.646;10.900;2022-08-19T09:28:47;4.07;;;1.00;;
59569;SDS011;45393;44.646;10.900;2022-08-19T09:31:14;2.17;;;1.20;;
59569;SDS011;45393;44.646;10.900;2022-08-19T09:33:40;3.97;;;1.93;;
59569;SDS011;45393;44.646;10.900;2022-08-19T09:36:09;3.90;;;1.30;;
59569;SDS011;45393;44.646;10.900;2022-08-19T09:38:35;2.63;;;1.30;;
59569;SDS011;45393;44.646;10.900;2022-08-19T09:41:07;3.23;;;1.40;;
59569;SDS011;45393;44.646;10.900;2022-08-19T09:43:34;3.63;;;1.27;;
59569;SDS011;45393;44.646;10.900;2022-08-19T09:46:05;2.90;;;1.40;;
59569;SDS011;45393;44.646;10.900;2022-08-19T09:48:34;3.73;;;1.40;;
59569;SDS011;45393;44.646;10.900;2022-08-19T09:51:14;2.93;;;1.20;;
59569;SDS011;45393;44.646;10.900;2022-08-19T09:53:40;2.60;;;1.17;;
59569;SDS011;45393;44.646;10.900;2022-08-19T09:56:07;2.63;;;1.17;;
59569;SDS011;45393;44.646;10.900;2022-08-19T09:58:33;3.40;;;1.20;;
59569;SDS011;45393;44.646;10.900;2022-08-19T10:01:00;2.67;;;1.10;;
59569;SDS011;45393;44.646;10.900;2022-08-19T10:03:28;1.70;;;0.83;;
59569;SDS011;45393;44.646;10.900;2022-08-19T10:05:54;2.97;;;1.00;;
59569;SDS011;45393;44.646;10.900;2022-08-19T10:08:24;4.00;;;1.57;;
59569;SDS011;45393;44.646;10.900;2022-08-19T10:10:51;1.67;;;0.90;;
59569;SDS011;45393;44.646;10.900;2022-08-19T10:13:19;2.23;;;1.00;;
59569;SDS011;45393;44.646;10.900;2022-08-19T10:15:48;1.90;;;1.20;;
59569;SDS011;45393;44.646;10.900;2022-08-19T10:18:18;2.43;;;1.20;;
59569;SDS011;45393;44.646;10.900;2022-08-19T10:20:45;2.03;;;1.03;;
59569;SDS011;45393;44.646;10.900;2022-08-19T10:23:12;2.17;;;0.90;;
59569;SDS011;45393;44.646;10.900;2022-08-19T10:25:38;2.03;;;1.00;;
59569;SDS011;45393;44.646;10.900;2022-08-19T10:28:04;1.80;;;0.90;;
59569;SDS011;45393;44.646;10.900;2022-08-19T10:30:35;2.40;;;1.10;;
59569;SDS011;45393;44.646;10.900;2022-08-19T10:33:01;3.57;;;1.13;;
59569;SDS011;45393;44.646;10.900;2022-08-19T10:35:27;1.97;;;0.90;;
59569;SDS011;45393;44.646;10.900;2022-08-19T10:37:54;1.37;;;0.93;;
59569;SDS011;45393;44.646;10.900;2022-08-19T10:40:24;2.57;;;1.07;;
59569;SDS011;45393;44.646;10.900;2022-08-19T10:42:50;2.73;;;1.03;;
59569;SDS011;45393;44.646;10.900;2022-08-19T10:45:17;4.30;;;1.10;;
59569;SDS011;45393;44.646;10.900;2022-08-19T10:47:43;2.40;;;1.03;;
59569;SDS011;45393;44.646;10.900;2022-08-19T10:50:09;1.80;;;1.03;;
59569;SDS011;45393;44.646;10.900;2022-08-19T10:52:54;1.77;;;1.00;;
59569;SDS011;45393;44.646;10.900;2022-08-19T10:55:21;5.90;;;1.37;;
59569;SDS011;45393;44.646;10.900;2022-08-19T10:58:10;1.93;;;0.97;;
59569;SDS011;45393;44.646;10.900;2022-08-19T11:00:37;2.13;;;1.03;;
59569;SDS011;45393;44.646;10.900;2022-08-19T11:03:03;3.97;;;1.10;;
59569;SDS011;45393;44.646;10.900;2022-08-19T11:05:29;3.70;;;1.40;;
59569;SDS011;45393;44.646;10.900;2022-08-19T11:07:55;4.50;;;1.20;;
59569;SDS011;45393;44.646;10.900;2022-08-19T11:10:21;2.67;;;1.10;;
59569;SDS011;45393;44.646;10.900;2022-08-19T11:12:48;3.43;;;1.33;;
59569;SDS011;45393;44.646;10.900;2022-08-19T11:15:19;1.70;;;0.90;;
59569;SDS011;45393;44.646;10.900;2022-08-19T11:17:45;3.63;;;1.30;;
59569;SDS011;45393;44.646;10.900;2022-08-19T11:20:12;2.67;;;1.20;;
59569;SDS011;45393;44.646;10.900;2022-08-19T11:22:38;1.40;;;0.87;;
59569;SDS011;45393;44.646;10.900;2022-08-19T11:25:05;3.33;;;0.90;;
59569;SDS011;45393;44.646;10.900;2022-08-19T11:27:31;1.30;;;0.80;;
59569;SDS011;45393;44.646;10.900;2022-08-19T11:29:58;1.50;;;0.77;;
59569;SDS011;45393;44.646;10.900;2022-08-19T11:32:25;1.63;;;0.80;;
59569;SDS011;45393;44.646;10.900;2022-08-19T11:34:52;2.87;;;1.20;;
59569;SDS011;45393;44.646;10.900;2022-08-19T11:37:19;2.67;;;0.73;;
59569;SDS011;45393;44.646;10.900;2022-08-19T11:39:45;5.10;;;1.37;;
59569;SDS011;45393;44.646;10.900;2022-08-19T11:42:11;1.50;;;0.90;;
59569;SDS011;45393;44.646;10.900;2022-08-19T11:45:04;3.03;;;1.03;;
59569;SDS011;45393;44.646;10.900;2022-08-19T11:47:30;1.67;;;0.80;;
59569;SDS011;45393;44.646;10.900;2022-08-19T11:49:57;1.60;;;0.87;;
59569;SDS011;45393;44.646;10.900;2022-08-19T11:52:24;1.03;;;0.83;;
59569;SDS011;45393;44.646;10.900;2022-08-19T11:54:50;2.20;;;1.00;;
59569;SDS011;45393;44.646;10.900;2022-08-19T11:57:16;2.57;;;0.80;;
59569;SDS011;45393;44.646;10.900;2022-08-19T11:59:48;0.93;;;0.70;;
59569;SDS011;45393;44.646;10.900;2022-08-19T12:02:14;2.13;;;1.00;;
59569;SDS011;45393;44.646;10.900;2022-08-19T12:04:40;2.20;;;1.10;;
59569;SDS011;45393;44.646;10.900;2022-08-19T12:07:07;1.80;;;0.83;;
59569;SDS011;45393;44.646;10.900;2022-08-19T12:09:33;2.10;;;1.10;;
59569;SDS011;45393;44.646;10.900;2022-08-19T12:12:00;1.90;;;1.10;;
59569;SDS011;45393;44.646;10.900;2022-08-19T12:14:27;1.33;;;1.00;;
59569;SDS011;45393;44.646;10.900;2022-08-19T12:16:57;3.10;;;1.00;;
59569;SDS011;45393;44.646;10.900;2022-08-19T12:19:23;4.40;;;1.00;;
59569;SDS011;45393;44.646;10.900;2022-08-19T12:21:50;4.23;;;1.10;;
59569;SDS011;45393;44.646;10.900;2022-08-19T12:24:18;4.10;;;1.20;;
59569;SDS011;45393;44.646;10.900;2022-08-19T12:26:49;2.47;;;0.90;;
59569;SDS011;45393;44.646;10.900;2022-08-19T12:29:16;2.03;;;0.90;;
59569;SDS011;45393;44.646;10.900;2022-08-19T12:31:42;3.20;;;0.80;;
59569;SDS011;45393;44.646;10.900;2022-08-19T12:34:08;1.80;;;0.80;;
59569;SDS011;45393;44.646;10.900;2022-08-19T12:36:35;4.40;;;1.10;;
59569;SDS011;45393;44.646;10.900;2022-08-19T12:39:01;4.50;;;1.00;;
59569;SDS011;45393;44.646;10.900;2022-08-19T12:41:27;1.70;;;0.73;;
59569;SDS011;45393;44.646;10.900;2022-08-19T12:43:53;2.10;;;1.00;;
59569;SDS011;45393;44.646;10.900;2022-08-19T12:46:19;1.63;;;0.90;;
59569;SDS011;45393;44.646;10.900;2022-08-19T12:48:46;2.13;;;0.70;;
59569;SDS011;45393;44.646;10.900;2022-08-19T12:51:13;0.60;;;0.60;;
59569;SDS011;45393;44.646;10.900;2022-08-19T12:53:40;2.03;;;0.80;;
59569;SDS011;45393;44.646;10.900;2022-08-19T12:56:07;1.07;;;0.73;;
59569;SDS011;45393;44.646;10.900;2022-08-19T12:58:33;1.80;;;0.90;;
59569;SDS011;45393;44.646;10.900;2022-08-19T13:01:05;1.37;;;0.67;;
59569;SDS011;45393;44.646;10.900;2022-08-19T13:03:31;1.20;;;0.70;;
59569;SDS011;45393;44.646;10.900;2022-08-19T13:05:57;1.23;;;0.80;;
59569;SDS011;45393;44.646;10.900;2022-08-19T13:08:24;1.90;;;0.80;;
59569;SDS011;45393;44.646;10.900;2022-08-19T13:10:50;1.07;;;0.60;;
59569;SDS011;45393;44.646;10.900;2022-08-19T13:13:16;1.13;;;0.60;;
59569;SDS011;45393;44.646;10.900;2022-08-19T13:15:42;1.30;;;0.90;;
59569;SDS011;45393;44.646;10.900;2022-08-19T13:18:10;1.17;;;0.70;;
59569;SDS011;45393;44.646;10.900;2022-08-19T13:20:37;1.33;;;0.70;;
59569;SDS011;45393;44.646;10.900;2022-08-19T13:23:05;0.90;;;0.63;;
59569;SDS011;45393;44.646;10.900;2022-08-19T13:25:32;1.37;;;0.77;;
59569;SDS011;45393;44.646;10.900;2022-08-19T13:27:58;1.43;;;0.70;;
59569;SDS011;45393;44.646;10.900;2022-08-19T13:30:25;1.70;;;0.70;;
59569;SDS011;45393;44.646;10.900;2022-08-19T13:33:10;0.83;;;0.60;;
59569;SDS011;45393;44.646;10.900;2022-08-19T13:38:05;3.20;;;0.63;;
59569;SDS011;45393;44.646;10.900;2022-08-19T13:40:31;1.37;;;0.70;;
59569;SDS011;45393;44.646;10.900;2022-08-19T13:43:01;1.47;;;0.80;;
59569;SDS011;45393;44.646;10.900;2022-08-19T13:45:29;2.13;;;0.60;;
59569;SDS011;45393;44.646;10.900;2022-08-19T13:47:56;3.50;;;0.90;;
59569;SDS011;45393;44.646;10.900;2022-08-19T13:50:25;1.10;;;0.60;;
59569;SDS011;45393;44.646;10.900;2022-08-19T13:52:51;1.53;;;0.83;;
59569;SDS011;45393;44.646;10.900;2022-08-19T13:55:18;1.80;;;0.90;;
59569;SDS011;45393;44.646;10.900;2022-08-19T13:57:44;1.20;;;0.60;;
59569;SDS011;45393;44.646;10.900;2022-08-19T14:00:15;2.60;;;0.70;;
59569;SDS011;45393;44.646;10.900;2022-08-19T14:02:45;0.83;;;0.70;;
59569;SDS011;45393;44.646;10.900;2022-08-19T14:05:13;1.60;;;0.50;;
59569;SDS011;45393;44.646;10.900;2022-08-19T14:07:39;0.97;;;0.70;;
59569;SDS011;45393;44.646;10.900;2022-08-19T14:10:06;2.40;;;0.80;;
59569;SDS011;45393;44.646;10.900;2022-08-19T14:12:33;1.87;;;0.80;;
59569;SDS011;45393;44.646;10.900;2022-08-19T14:14:59;2.80;;;0.80;;
59569;SDS011;45393;44.646;10.900;2022-08-19T14:17:25;2.43;;;0.60;;
59569;SDS011;45393;44.646;10.900;2022-08-19T14:19:56;1.53;;;0.90;;
59569;SDS011;45393;44.646;10.900;2022-08-19T14:22:22;3.40;;;1.00;;
59569;SDS011;45393;44.646;10.900;2022-08-19T14:24:48;1.77;;;0.80;;
59569;SDS011;45393;44.646;10.900;2022-08-19T14:27:15;1.87;;;0.80;;
59569;SDS011;45393;44.646;10.900;2022-08-19T14:29:41;2.47;;;0.80;;
59569;SDS011;45393;44.646;10.900;2022-08-19T14:32:07;1.10;;;0.67;;
59569;SDS011;45393;44.646;10.900;2022-08-19T14:34:33;2.10;;;0.70;;
59569;SDS011;45393;44.646;10.900;2022-08-19T14:37:02;1.60;;;0.80;;
59569;SDS011;45393;44.646;10.900;2022-08-19T14:39:28;6.23;;;1.30;;
59569;SDS011;45393;44.646;10.900;2022-08-19T14:41:54;2.40;;;1.00;;
59569;SDS011;45393;44.646;10.900;2022-08-19T14:44:21;4.93;;;1.37;;
59569;SDS011;45393;44.646;10.900;2022-08-19T14:46:47;2.87;;;0.93;;